sensor_id;sensor_type;location;lat;lon;timestamp;P1;durP1;ratioP1;P2;durP2;ratioP2
20365;SDS011;10341;49.894;8.822;2022-08-19T00:09:47;18.73;;;12.20;;
20365;SDS011;10341;49.894;8.822;2022-08-19T00:15:08;16.15;;;11.60;;
20365;SDS011;10341;49.894;8.822;2022-08-19T00:20:30;15.95;;;10.30;;
20365;SDS011;10341;49.894;8.822;2022-08-19T00:25:49;16.83;;;11.43;;
20365;SDS011;10341;49.894;8.822;2022-08-19T00:31:09;15.73;;;11.38;;
20365;SDS011;10341;49.894;8.822;2022-08-19T00:36:28;17.77;;;12.23;;
20365;SDS011;10341;49.894;8.822;2022-08-19T00:41:48;17.15;;;12.60;;
20365;SDS011;10341;49.894;8.822;2022-08-19T00:47:08;15.50;;;11.27;;
20365;SDS011;10341;49.894;8.822;2022-08-19T00:52:28;16.13;;;11.52;;
20365;SDS011;10341;49.894;8.822;2022-08-19T00:57:58;17.17;;;11.63;;
20365;SDS011;10341;49.894;8.822;2022-08-19T01:03:20;18.33;;;12.70;;
20365;SDS011;10341;49.894;8.822;2022-08-19T01:08:41;18.52;;;12.05;;
20365;SDS011;10341;49.894;8.822;2022-08-19T01:14:00;17.03;;;11.23;;
20365;SDS011;10341;49.894;8.822;2022-08-19T01:24:44;19.67;;;12.82;;
20365;SDS011;10341;49.894;8.822;2022-08-19T01:30:04;16.60;;;11.77;;
20365;SDS011;10341;49.894;8.822;2022-08-19T01:35:25;17.52;;;10.88;;
20365;SDS011;10341;49.894;8.822;2022-08-19T01:40:47;19.98;;;11.85;;
20365;SDS011;10341;49.894;8.822;2022-08-19T01:46:06;17.60;;;10.68;;
20365;SDS011;10341;49.894;8.822;2022-08-19T01:51:26;16.70;;;10.55;;
20365;SDS011;10341;49.894;8.822;2022-08-19T01:56:45;16.48;;;11.27;;
20365;SDS011;10341;49.894;8.822;2022-08-19T02:02:05;16.50;;;10.97;;
20365;SDS011;10341;49.894;8.822;2022-08-19T02:07:27;17.00;;;11.20;;
20365;SDS011;10341;49.894;8.822;2022-08-19T02:12:47;17.83;;;12.20;;
20365;SDS011;10341;49.894;8.822;2022-08-19T02:18:07;18.98;;;13.05;;
20365;SDS011;10341;49.894;8.822;2022-08-19T02:23:27;20.37;;;12.90;;
20365;SDS011;10341;49.894;8.822;2022-08-19T02:28:46;15.10;;;10.35;;
20365;SDS011;10341;49.894;8.822;2022-08-19T02:34:06;14.43;;;9.40;;
20365;SDS011;10341;49.894;8.822;2022-08-19T02:39:25;16.92;;;11.30;;
20365;SDS011;10341;49.894;8.822;2022-08-19T02:44:45;18.08;;;11.45;;
20365;SDS011;10341;49.894;8.822;2022-08-19T02:50:04;16.10;;;11.77;;
20365;SDS011;10341;49.894;8.822;2022-08-19T02:55:23;15.20;;;10.70;;
20365;SDS011;10341;49.894;8.822;2022-08-19T03:00:44;13.77;;;10.25;;
20365;SDS011;10341;49.894;8.822;2022-08-19T03:06:09;15.63;;;10.93;;
20365;SDS011;10341;49.894;8.822;2022-08-19T03:11:31;18.88;;;11.40;;
20365;SDS011;10341;49.894;8.822;2022-08-19T03:16:52;18.00;;;12.40;;
20365;SDS011;10341;49.894;8.822;2022-08-19T03:22:11;15.50;;;10.80;;
20365;SDS011;10341;49.894;8.822;2022-08-19T03:27:30;17.27;;;11.90;;
20365;SDS011;10341;49.894;8.822;2022-08-19T03:32:50;16.65;;;11.07;;
20365;SDS011;10341;49.894;8.822;2022-08-19T03:38:09;20.25;;;12.18;;
20365;SDS011;10341;49.894;8.822;2022-08-19T03:43:28;16.38;;;11.10;;
20365;SDS011;10341;49.894;8.822;2022-08-19T03:48:48;19.20;;;11.73;;
20365;SDS011;10341;49.894;8.822;2022-08-19T03:54:12;19.13;;;12.00;;
20365;SDS011;10341;49.894;8.822;2022-08-19T03:59:33;16.42;;;11.48;;
20365;SDS011;10341;49.894;8.822;2022-08-19T04:04:54;16.75;;;11.40;;
20365;SDS011;10341;49.894;8.822;2022-08-19T04:10:14;20.03;;;12.77;;
20365;SDS011;10341;49.894;8.822;2022-08-19T04:15:33;18.48;;;11.85;;
20365;SDS011;10341;49.894;8.822;2022-08-19T04:20:57;18.92;;;12.27;;
20365;SDS011;10341;49.894;8.822;2022-08-19T04:26:18;19.00;;;12.43;;
20365;SDS011;10341;49.894;8.822;2022-08-19T04:31:40;18.05;;;12.15;;
20365;SDS011;10341;49.894;8.822;2022-08-19T04:37:00;22.33;;;12.05;;
20365;SDS011;10341;49.894;8.822;2022-08-19T04:42:19;19.60;;;12.00;;
20365;SDS011;10341;49.894;8.822;2022-08-19T04:47:57;17.40;;;11.38;;
20365;SDS011;10341;49.894;8.822;2022-08-19T04:53:16;16.27;;;11.38;;
20365;SDS011;10341;49.894;8.822;2022-08-19T04:58:36;21.47;;;13.17;;
20365;SDS011;10341;49.894;8.822;2022-08-19T05:03:57;19.85;;;11.93;;
20365;SDS011;10341;49.894;8.822;2022-08-19T05:09:17;18.75;;;12.45;;
20365;SDS011;10341;49.894;8.822;2022-08-19T05:14:36;17.70;;;11.90;;
20365;SDS011;10341;49.894;8.822;2022-08-19T05:19:55;19.42;;;11.88;;
20365;SDS011;10341;49.894;8.822;2022-08-19T05:25:34;17.60;;;11.23;;
20365;SDS011;10341;49.894;8.822;2022-08-19T05:30:53;18.15;;;11.60;;
20365;SDS011;10341;49.894;8.822;2022-08-19T05:36:14;15.68;;;10.15;;
20365;SDS011;10341;49.894;8.822;2022-08-19T05:41:34;15.02;;;10.05;;
20365;SDS011;10341;49.894;8.822;2022-08-19T05:46:53;14.77;;;10.73;;
20365;SDS011;10341;49.894;8.822;2022-08-19T05:52:13;16.08;;;10.38;;
20365;SDS011;10341;49.894;8.822;2022-08-19T05:57:34;11.75;;;8.20;;
20365;SDS011;10341;49.894;8.822;2022-08-19T06:02:53;12.52;;;8.95;;
20365;SDS011;10341;49.894;8.822;2022-08-19T06:08:14;12.65;;;8.90;;
20365;SDS011;10341;49.894;8.822;2022-08-19T06:13:37;12.68;;;9.00;;
20365;SDS011;10341;49.894;8.822;2022-08-19T06:18:58;10.98;;;7.57;;
20365;SDS011;10341;49.894;8.822;2022-08-19T06:24:20;10.18;;;7.93;;
20365;SDS011;10341;49.894;8.822;2022-08-19T06:29:44;9.57;;;7.82;;
20365;SDS011;10341;49.894;8.822;2022-08-19T06:35:05;11.55;;;9.05;;
20365;SDS011;10341;49.894;8.822;2022-08-19T06:40:25;10.18;;;7.82;;
20365;SDS011;10341;49.894;8.822;2022-08-19T06:45:45;10.38;;;7.53;;
20365;SDS011;10341;49.894;8.822;2022-08-19T06:51:05;12.57;;;8.32;;
20365;SDS011;10341;49.894;8.822;2022-08-19T06:56:26;10.00;;;7.65;;
20365;SDS011;10341;49.894;8.822;2022-08-19T07:01:53;8.73;;;6.90;;
20365;SDS011;10341;49.894;8.822;2022-08-19T07:07:14;8.70;;;7.30;;
20365;SDS011;10341;49.894;8.822;2022-08-19T07:12:34;10.55;;;7.43;;
20365;SDS011;10341;49.894;8.822;2022-08-19T07:17:53;9.93;;;7.73;;
20365;SDS011;10341;49.894;8.822;2022-08-19T07:23:12;9.87;;;7.37;;
20365;SDS011;10341;49.894;8.822;2022-08-19T07:28:31;10.37;;;7.07;;
20365;SDS011;10341;49.894;8.822;2022-08-19T07:33:51;9.53;;;6.80;;
20365;SDS011;10341;49.894;8.822;2022-08-19T07:39:13;9.00;;;7.15;;
20365;SDS011;10341;49.894;8.822;2022-08-19T07:44:34;7.70;;;6.90;;
20365;SDS011;10341;49.894;8.822;2022-08-19T07:49:54;8.15;;;6.63;;
20365;SDS011;10341;49.894;8.822;2022-08-19T07:55:15;7.80;;;6.30;;
20365;SDS011;10341;49.894;8.822;2022-08-19T08:00:37;6.88;;;5.70;;
20365;SDS011;10341;49.894;8.822;2022-08-19T08:05:56;8.98;;;5.10;;
20365;SDS011;10341;49.894;8.822;2022-08-19T08:11:36;5.70;;;4.45;;
20365;SDS011;10341;49.894;8.822;2022-08-19T08:16:57;7.78;;;5.22;;
20365;SDS011;10341;49.894;8.822;2022-08-19T08:22:18;7.38;;;5.57;;
20365;SDS011;10341;49.894;8.822;2022-08-19T08:27:58;7.32;;;4.00;;
20365;SDS011;10341;49.894;8.822;2022-08-19T08:33:19;6.25;;;3.72;;
20365;SDS011;10341;49.894;8.822;2022-08-19T08:38:40;5.18;;;3.65;;
20365;SDS011;10341;49.894;8.822;2022-08-19T08:44:00;3.90;;;3.50;;
20365;SDS011;10341;49.894;8.822;2022-08-19T08:49:43;5.05;;;3.75;;
20365;SDS011;10341;49.894;8.822;2022-08-19T08:55:18;4.68;;;3.38;;
20365;SDS011;10341;49.894;8.822;2022-08-19T09:00:42;4.20;;;3.40;;
20365;SDS011;10341;49.894;8.822;2022-08-19T09:06:11;4.10;;;2.95;;
20365;SDS011;10341;49.894;8.822;2022-08-19T09:17:24;4.60;;;3.53;;
20365;SDS011;10341;49.894;8.822;2022-08-19T09:22:52;4.43;;;3.50;;
20365;SDS011;10341;49.894;8.822;2022-08-19T09:28:12;3.92;;;3.10;;
20365;SDS011;10341;49.894;8.822;2022-08-19T09:33:31;3.47;;;2.80;;
20365;SDS011;10341;49.894;8.822;2022-08-19T09:38:50;3.20;;;2.90;;
20365;SDS011;10341;49.894;8.822;2022-08-19T09:44:10;4.90;;;3.05;;
20365;SDS011;10341;49.894;8.822;2022-08-19T09:49:31;3.67;;;3.10;;
20365;SDS011;10341;49.894;8.822;2022-08-19T10:00:12;3.50;;;3.20;;
20365;SDS011;10341;49.894;8.822;2022-08-19T10:05:32;3.42;;;2.88;;
20365;SDS011;10341;49.894;8.822;2022-08-19T10:11:06;3.60;;;2.95;;
20365;SDS011;10341;49.894;8.822;2022-08-19T10:16:27;3.58;;;2.80;;
20365;SDS011;10341;49.894;8.822;2022-08-19T10:21:46;2.97;;;2.65;;
20365;SDS011;10341;49.894;8.822;2022-08-19T10:27:05;3.00;;;2.70;;
20365;SDS011;10341;49.894;8.822;2022-08-19T10:32:25;3.00;;;2.30;;
20365;SDS011;10341;49.894;8.822;2022-08-19T10:37:44;3.13;;;2.42;;
20365;SDS011;10341;49.894;8.822;2022-08-19T10:43:03;2.75;;;2.40;;
20365;SDS011;10341;49.894;8.822;2022-08-19T10:48:23;2.67;;;2.47;;
20365;SDS011;10341;49.894;8.822;2022-08-19T10:53:42;2.35;;;2.15;;
20365;SDS011;10341;49.894;8.822;2022-08-19T10:59:01;3.05;;;2.75;;
20365;SDS011;10341;49.894;8.822;2022-08-19T11:04:21;2.78;;;2.50;;
20365;SDS011;10341;49.894;8.822;2022-08-19T11:09:41;4.90;;;2.35;;
20365;SDS011;10341;49.894;8.822;2022-08-19T11:15:00;3.10;;;2.75;;
20365;SDS011;10341;49.894;8.822;2022-08-19T11:20:20;3.20;;;2.90;;
20365;SDS011;10341;49.894;8.822;2022-08-19T11:25:39;4.75;;;3.00;;
20365;SDS011;10341;49.894;8.822;2022-08-19T11:30:58;3.70;;;3.40;;
20365;SDS011;10341;49.894;8.822;2022-08-19T11:36:18;4.50;;;3.65;;
20365;SDS011;10341;49.894;8.822;2022-08-19T11:41:39;4.53;;;3.20;;
20365;SDS011;10341;49.894;8.822;2022-08-19T11:46:58;5.03;;;3.30;;
20365;SDS011;10341;49.894;8.822;2022-08-19T11:52:19;3.40;;;3.08;;
20365;SDS011;10341;49.894;8.822;2022-08-19T11:57:38;4.60;;;3.90;;
20365;SDS011;10341;49.894;8.822;2022-08-19T12:02:59;3.83;;;3.50;;
20365;SDS011;10341;49.894;8.822;2022-08-19T12:08:18;4.47;;;4.05;;
20365;SDS011;10341;49.894;8.822;2022-08-19T12:13:38;6.03;;;4.05;;
20365;SDS011;10341;49.894;8.822;2022-08-19T12:18:57;6.28;;;4.30;;
20365;SDS011;10341;49.894;8.822;2022-08-19T12:24:21;5.55;;;4.80;;
20365;SDS011;10341;49.894;8.822;2022-08-19T12:29:42;5.30;;;4.80;;
20365;SDS011;10341;49.894;8.822;2022-08-19T12:35:02;6.25;;;5.45;;
20365;SDS011;10341;49.894;8.822;2022-08-19T12:40:21;7.18;;;5.97;;
20365;SDS011;10341;49.894;8.822;2022-08-19T12:45:41;5.70;;;5.10;;
20365;SDS011;10341;49.894;8.822;2022-08-19T12:51:09;7.13;;;5.95;;
20365;SDS011;10341;49.894;8.822;2022-08-19T12:56:29;7.05;;;6.35;;
20365;SDS011;10341;49.894;8.822;2022-08-19T13:07:07;7.68;;;6.88;;
20365;SDS011;10341;49.894;8.822;2022-08-19T13:12:27;10.25;;;7.57;;
20365;SDS011;10341;49.894;8.822;2022-08-19T13:17:47;8.70;;;7.80;;
20365;SDS011;10341;49.894;8.822;2022-08-19T13:23:08;8.30;;;6.85;;
20365;SDS011;10341;49.894;8.822;2022-08-19T13:28:28;8.50;;;6.85;;
20365;SDS011;10341;49.894;8.822;2022-08-19T13:34:10;7.90;;;7.10;;
20365;SDS011;10341;49.894;8.822;2022-08-19T13:39:31;6.70;;;6.03;;
20365;SDS011;10341;49.894;8.822;2022-08-19T13:44:53;8.88;;;6.50;;
20365;SDS011;10341;49.894;8.822;2022-08-19T13:50:13;6.43;;;5.72;;
20365;SDS011;10341;49.894;8.822;2022-08-19T13:55:39;6.43;;;5.72;;
20365;SDS011;10341;49.894;8.822;2022-08-19T14:00:59;5.45;;;4.95;;
20365;SDS011;10341;49.894;8.822;2022-08-19T14:06:19;5.90;;;5.15;;
20365;SDS011;10341;49.894;8.822;2022-08-19T14:11:39;5.32;;;4.60;;
20365;SDS011;10341;49.894;8.822;2022-08-19T14:16:58;6.22;;;4.88;;
20365;SDS011;10341;49.894;8.822;2022-08-19T14:22:17;5.60;;;5.10;;
20365;SDS011;10341;49.894;8.822;2022-08-19T14:27:38;6.20;;;4.80;;
20365;SDS011;10341;49.894;8.822;2022-08-19T14:32:59;5.25;;;4.75;;
20365;SDS011;10341;49.894;8.822;2022-08-19T14:38:20;5.90;;;5.30;;
20365;SDS011;10341;49.894;8.822;2022-08-19T14:43:39;5.85;;;4.95;;
20365;SDS011;10341;49.894;8.822;2022-08-19T14:48:59;5.82;;;5.07;;
20365;SDS011;10341;49.894;8.822;2022-08-19T14:54:18;5.60;;;4.18;;
20365;SDS011;10341;49.894;8.822;2022-08-19T14:59:37;4.18;;;3.78;;
20365;SDS011;10341;49.894;8.822;2022-08-19T15:04:57;4.00;;;3.60;;
20365;SDS011;10341;49.894;8.822;2022-08-19T15:15:35;3.73;;;3.40;;
20365;SDS011;10341;49.894;8.822;2022-08-19T15:31:34;3.50;;;3.20;;
20365;SDS011;10341;49.894;8.822;2022-08-19T15:36:54;3.78;;;3.13;;
20365;SDS011;10341;49.894;8.822;2022-08-19T15:42:13;3.50;;;3.03;;
20365;SDS011;10341;49.894;8.822;2022-08-19T15:47:32;3.58;;;3.28;;
20365;SDS011;10341;49.894;8.822;2022-08-19T15:58:13;5.70;;;3.25;;
20365;SDS011;10341;49.894;8.822;2022-08-19T16:03:52;4.07;;;2.95;;
20365;SDS011;10341;49.894;8.822;2022-08-19T16:09:31;3.22;;;3.03;;
20365;SDS011;10341;49.894;8.822;2022-08-19T16:14:52;3.22;;;2.88;;
20365;SDS011;10341;49.894;8.822;2022-08-19T16:20:12;3.72;;;2.83;;
20365;SDS011;10341;49.894;8.822;2022-08-19T16:25:31;4.43;;;3.15;;
20365;SDS011;10341;49.894;8.822;2022-08-19T16:36:09;3.92;;;2.83;;
20365;SDS011;10341;49.894;8.822;2022-08-19T16:41:29;3.47;;;3.17;;
20365;SDS011;10341;49.894;8.822;2022-08-19T16:46:48;3.10;;;2.80;;
20365;SDS011;10341;49.894;8.822;2022-08-19T16:52:08;3.38;;;3.08;;
20365;SDS011;10341;49.894;8.822;2022-08-19T16:57:27;5.13;;;2.80;;
20365;SDS011;10341;49.894;8.822;2022-08-19T17:02:47;3.15;;;2.85;;
20365;SDS011;10341;49.894;8.822;2022-08-19T17:08:06;3.20;;;2.90;;
20365;SDS011;10341;49.894;8.822;2022-08-19T17:13:26;3.22;;;2.53;;
20365;SDS011;10341;49.894;8.822;2022-08-19T17:18:47;3.47;;;3.00;;
20365;SDS011;10341;49.894;8.822;2022-08-19T17:24:10;2.80;;;2.50;;
20365;SDS011;10341;49.894;8.822;2022-08-19T17:34:50;2.40;;;2.20;;
20365;SDS011;10341;49.894;8.822;2022-08-19T17:40:09;2.85;;;2.50;;
20365;SDS011;10341;49.894;8.822;2022-08-19T17:50:47;4.00;;;3.10;;
20365;SDS011;10341;49.894;8.822;2022-08-19T17:56:09;4.45;;;3.08;;
20365;SDS011;10341;49.894;8.822;2022-08-19T18:01:29;5.93;;;3.50;;
20365;SDS011;10341;49.894;8.822;2022-08-19T18:06:49;4.28;;;3.50;;
20365;SDS011;10341;49.894;8.822;2022-08-19T18:12:09;4.93;;;3.33;;
20365;SDS011;10341;49.894;8.822;2022-08-19T18:17:30;3.33;;;2.95;;
20365;SDS011;10341;49.894;8.822;2022-08-19T18:22:50;4.07;;;3.65;;
20365;SDS011;10341;49.894;8.822;2022-08-19T18:28:09;3.90;;;3.60;;
20365;SDS011;10341;49.894;8.822;2022-08-19T18:33:28;3.97;;;3.50;;
20365;SDS011;10341;49.894;8.822;2022-08-19T18:38:48;4.32;;;3.78;;
20365;SDS011;10341;49.894;8.822;2022-08-19T18:44:26;4.68;;;3.65;;
20365;SDS011;10341;49.894;8.822;2022-08-19T18:50:04;7.00;;;4.30;;
20365;SDS011;10341;49.894;8.822;2022-08-19T18:55:27;5.75;;;4.28;;
20365;SDS011;10341;49.894;8.822;2022-08-19T19:00:47;6.00;;;4.50;;
20365;SDS011;10341;49.894;8.822;2022-08-19T19:06:06;4.43;;;4.00;;
20365;SDS011;10341;49.894;8.822;2022-08-19T19:11:27;6.13;;;4.15;;
20365;SDS011;10341;49.894;8.822;2022-08-19T19:16:50;3.80;;;3.45;;
20365;SDS011;10341;49.894;8.822;2022-08-19T19:22:11;6.10;;;4.50;;
20365;SDS011;10341;49.894;8.822;2022-08-19T19:27:31;5.47;;;4.20;;
20365;SDS011;10341;49.894;8.822;2022-08-19T19:32:50;4.78;;;4.10;;
20365;SDS011;10341;49.894;8.822;2022-08-19T19:38:10;5.15;;;4.28;;
20365;SDS011;10341;49.894;8.822;2022-08-19T19:43:29;5.32;;;4.53;;
20365;SDS011;10341;49.894;8.822;2022-08-19T19:48:49;5.75;;;4.47;;
20365;SDS011;10341;49.894;8.822;2022-08-19T19:54:09;6.25;;;5.15;;
20365;SDS011;10341;49.894;8.822;2022-08-19T19:59:31;5.95;;;4.55;;
20365;SDS011;10341;49.894;8.822;2022-08-19T20:04:51;5.23;;;4.70;;
20365;SDS011;10341;49.894;8.822;2022-08-19T20:10:11;5.30;;;4.40;;
20365;SDS011;10341;49.894;8.822;2022-08-19T20:20:51;5.85;;;4.30;;
20365;SDS011;10341;49.894;8.822;2022-08-19T20:26:10;5.70;;;4.80;;
20365;SDS011;10341;49.894;8.822;2022-08-19T20:31:29;5.80;;;4.70;;
20365;SDS011;10341;49.894;8.822;2022-08-19T20:36:48;7.30;;;5.13;;
20365;SDS011;10341;49.894;8.822;2022-08-19T20:42:08;10.00;;;5.30;;
20365;SDS011;10341;49.894;8.822;2022-08-19T20:47:27;5.97;;;4.97;;
20365;SDS011;10341;49.894;8.822;2022-08-19T20:52:48;6.28;;;4.80;;
20365;SDS011;10341;49.894;8.822;2022-08-19T20:58:07;5.80;;;4.82;;
20365;SDS011;10341;49.894;8.822;2022-08-19T21:03:29;6.95;;;4.60;;
20365;SDS011;10341;49.894;8.822;2022-08-19T21:08:51;6.68;;;4.45;;
20365;SDS011;10341;49.894;8.822;2022-08-19T21:14:12;6.47;;;5.20;;
20365;SDS011;10341;49.894;8.822;2022-08-19T21:19:31;6.07;;;4.80;;
20365;SDS011;10341;49.894;8.822;2022-08-19T21:24:51;5.57;;;4.60;;
20365;SDS011;10341;49.894;8.822;2022-08-19T21:30:10;5.77;;;4.63;;
20365;SDS011;10341;49.894;8.822;2022-08-19T21:40:50;6.85;;;4.80;;
20365;SDS011;10341;49.894;8.822;2022-08-19T21:46:09;5.80;;;4.70;;
20365;SDS011;10341;49.894;8.822;2022-08-19T21:51:28;5.82;;;4.47;;
20365;SDS011;10341;49.894;8.822;2022-08-19T21:56:47;5.78;;;4.82;;
20365;SDS011;10341;49.894;8.822;2022-08-19T22:02:06;6.30;;;4.88;;
20365;SDS011;10341;49.894;8.822;2022-08-19T22:07:26;5.80;;;4.72;;
20365;SDS011;10341;49.894;8.822;2022-08-19T22:12:45;6.30;;;5.10;;
20365;SDS011;10341;49.894;8.822;2022-08-19T22:23:25;5.43;;;4.85;;
20365;SDS011;10341;49.894;8.822;2022-08-19T22:28:44;7.07;;;5.18;;
20365;SDS011;10341;49.894;8.822;2022-08-19T22:34:03;7.43;;;5.00;;
20365;SDS011;10341;49.894;8.822;2022-08-19T22:39:24;8.15;;;4.97;;
20365;SDS011;10341;49.894;8.822;2022-08-19T22:44:43;6.95;;;5.05;;
20365;SDS011;10341;49.894;8.822;2022-08-19T22:50:02;7.13;;;5.13;;
20365;SDS011;10341;49.894;8.822;2022-08-19T22:55:24;6.05;;;4.80;;
20365;SDS011;10341;49.894;8.822;2022-08-19T23:00:44;8.07;;;4.70;;
20365;SDS011;10341;49.894;8.822;2022-08-19T23:06:03;6.63;;;4.63;;
20365;SDS011;10341;49.894;8.822;2022-08-19T23:11:22;8.55;;;4.50;;
20365;SDS011;10341;49.894;8.822;2022-08-19T23:16:41;5.22;;;4.20;;
20365;SDS011;10341;49.894;8.822;2022-08-19T23:22:03;5.43;;;3.53;;
20365;SDS011;10341;49.894;8.822;2022-08-19T23:27:22;5.13;;;4.07;;
20365;SDS011;10341;49.894;8.822;2022-08-19T23:33:05;5.15;;;3.83;;
20365;SDS011;10341;49.894;8.822;2022-08-19T23:38:31;5.22;;;3.60;;
20365;SDS011;10341;49.894;8.822;2022-08-19T23:43:50;5.43;;;3.97;;
20365;SDS011;10341;49.894;8.822;2022-08-19T23:49:10;4.72;;;3.63;;
20365;SDS011;10341;49.894;8.822;2022-08-19T23:54:29;5.75;;;3.92;;
20365;SDS011;10341;49.894;8.822;2022-08-19T23:59:48;5.50;;;4.25;;
